Terminal Aerodrome Forecast
Issued by NWS Austin/San Antonio, TX

Home | Current Version | Previous Version | Text Only | Print | Product List | Glossary On
Versions: 1 2 3 4 5 6 7 8 9 10 11 12 13 14 15 16 17 18 19 20 21 22 23 24 25 26 27 28
000
FTUS44 KEWX 270912 AAA
TAFSAT
TAF AMD
KSAT 270912Z 2709/2812 13008KT P6SM OVC008
     FM271500 16010KT P6SM BKN015
     FM271700 16013KT P6SM BKN040
     FM280700 14010KT 4SM BR OVC015=

USA.gov is the U.S. government's official web portal to all federal, state and local government web resources and services.